createdAt,value
2018-11-13T00:02:15.021Z,14.53
2018-11-13T00:04:46.999Z,15.30
2018-11-13T00:07:18.987Z,15.27
2018-11-13T00:09:50.893Z,14.87
2018-11-13T00:12:23.784Z,16.23
2018-11-13T00:14:56.455Z,16.00
2018-11-13T00:17:29.257Z,17.07
2018-11-13T00:20:02.033Z,15.60
2018-11-13T00:22:34.822Z,14.50
2018-11-13T00:25:07.627Z,16.37
2018-11-13T00:27:40.079Z,14.90
2018-11-13T00:30:18.421Z,14.80
2018-11-13T00:32:50.968Z,15.30
2018-11-13T00:35:23.498Z,17.40
2018-11-13T00:37:55.544Z,16.90
2018-11-13T00:40:27.627Z,17.70
2018-11-13T00:42:59.392Z,18.17
2018-11-13T00:45:31.259Z,18.33
2018-11-13T00:48:03.388Z,18.80
2018-11-13T00:50:35.456Z,18.40
2018-11-13T00:53:07.398Z,18.07
2018-11-13T00:55:39.309Z,20.47
2018-11-13T00:58:11.386Z,20.80
2018-11-13T01:00:43.623Z,21.33
2018-11-13T01:03:15.614Z,20.37
2018-11-13T01:05:47.747Z,21.07
2018-11-13T01:08:20.569Z,21.50
2018-11-13T01:10:53.360Z,21.13
2018-11-13T01:13:26.143Z,22.83
2018-11-13T01:15:58.283Z,23.13
2018-11-13T01:18:30.247Z,24.40
2018-11-13T01:21:02.299Z,23.10
2018-11-13T01:23:35.036Z,24.97
2018-11-13T01:26:07.697Z,23.63
2018-11-13T01:28:40.033Z,27.10
2018-11-13T01:31:12.131Z,25.57
2018-11-13T01:33:44.054Z,26.90
2018-11-13T01:36:16.170Z,25.27
2018-11-13T01:38:48.217Z,26.77
2018-11-13T01:41:20.365Z,26.50
2018-11-13T01:43:52.512Z,26.90
2018-11-13T01:46:24.878Z,26.57
2018-11-13T01:48:56.877Z,26.43
2018-11-13T01:51:29.369Z,27.27
2018-11-13T01:54:01.583Z,29.90
2018-11-13T01:56:33.872Z,26.77
2018-11-13T01:59:06.429Z,28.90
2018-11-13T02:01:38.856Z,30.67
2018-11-13T02:04:11.024Z,29.27
2018-11-13T02:06:42.960Z,32.20
2018-11-13T02:09:15.667Z,30.97
2018-11-13T02:11:47.447Z,30.07
2018-11-13T02:14:19.340Z,30.97
2018-11-13T02:16:52.305Z,31.87
2018-11-13T02:19:24.417Z,28.27
2018-11-13T02:21:56.440Z,29.23
2018-11-13T02:24:28.531Z,28.60
2018-11-13T02:27:00.671Z,32.47
2018-11-13T02:29:32.663Z,33.90
2018-11-13T02:32:04.696Z,36.43
2018-11-13T02:34:36.965Z,30.13
2018-11-13T02:37:08.959Z,32.40
2018-11-13T02:39:41.053Z,30.67
2018-11-13T02:42:44.046Z,31.70
2018-11-13T02:45:17.662Z,32.43
2018-11-13T02:47:49.625Z,32.93
2018-11-13T02:50:22.379Z,33.57
2018-11-13T02:52:54.315Z,32.03
2018-11-13T02:55:26.491Z,33.53
2018-11-13T02:57:58.467Z,34.33
2018-11-13T03:00:31.271Z,35.33
2018-11-13T03:03:04.045Z,36.80
2018-11-13T03:05:36.505Z,34.73
2018-11-13T03:08:08.565Z,38.23
2018-11-13T03:10:41.554Z,37.03
2018-11-13T03:13:13.695Z,38.53
2018-11-13T03:15:45.889Z,37.13
2018-11-13T03:18:17.951Z,34.00
2018-11-13T03:20:50.051Z,36.67
2018-11-13T03:23:21.967Z,37.87
2018-11-13T03:25:53.957Z,39.80
2018-11-13T03:28:26.105Z,36.17
2018-11-13T03:30:57.952Z,37.67
2018-11-13T03:33:29.883Z,36.80
2018-11-13T03:36:01.798Z,39.10
2018-11-13T03:38:33.739Z,36.43
2018-11-13T03:41:06.000Z,42.10
2018-11-13T03:43:39.408Z,38.43
2018-11-13T03:46:11.126Z,41.10
2018-11-13T03:48:43.088Z,39.10
2018-11-13T03:51:15.059Z,40.47
2018-11-13T03:53:46.789Z,40.50
2018-11-13T03:56:18.705Z,39.77
2018-11-13T03:58:50.957Z,39.70
2018-11-13T04:01:22.838Z,41.23
2018-11-13T04:03:54.892Z,46.00
2018-11-13T04:06:27.602Z,41.47
2018-11-13T04:08:59.760Z,37.83
2018-11-13T04:11:32.115Z,44.23
2018-11-13T04:14:04.236Z,42.87
2018-11-13T04:16:37.093Z,43.90
2018-11-13T04:19:10.230Z,44.97
2018-11-13T04:21:42.146Z,42.70
2018-11-13T04:24:13.853Z,43.27
2018-11-13T04:26:45.769Z,43.60
2018-11-13T04:29:17.808Z,43.10
2018-11-13T04:31:50.200Z,44.17
2018-11-13T04:34:22.869Z,45.67
2018-11-13T04:36:55.024Z,41.47
2018-11-13T04:39:27.865Z,45.93
2018-11-13T04:41:59.866Z,45.93
2018-11-13T04:44:32.566Z,46.00
2018-11-13T04:47:05.754Z,44.30
2018-11-13T04:49:38.184Z,45.63
2018-11-13T04:52:10.298Z,43.60
2018-11-13T04:54:42.238Z,47.00
2018-11-13T04:57:14.206Z,42.00
2018-11-13T04:59:46.272Z,42.53
2018-11-13T05:02:18.224Z,44.70
2018-11-13T05:04:50.091Z,45.47
2018-11-13T05:07:22.151Z,45.07
2018-11-13T05:09:54.734Z,45.73
2018-11-13T05:12:26.803Z,44.53
2018-11-13T05:14:58.870Z,42.67
2018-11-13T05:17:31.562Z,43.13
2018-11-13T05:20:04.356Z,42.27
2018-11-13T05:22:36.481Z,46.17
2018-11-13T05:25:10.233Z,41.07
2018-11-13T05:27:42.810Z,44.20
2018-11-13T05:30:19.762Z,41.43
2018-11-13T05:32:52.089Z,43.13
2018-11-13T05:35:24.173Z,43.47
2018-11-13T05:37:56.015Z,43.20
2018-11-13T05:40:28.032Z,44.23
2018-11-13T05:42:59.964Z,40.73
2018-11-13T05:45:32.037Z,42.57
2018-11-13T05:48:04.026Z,42.00
2018-11-13T05:50:36.074Z,38.73
2018-11-13T05:53:08.309Z,36.33
2018-11-13T05:55:40.214Z,38.83
2018-11-13T05:58:12.317Z,78.13
2018-11-13T06:00:44.587Z,87.87
2018-11-13T06:03:17.498Z,81.47
2018-11-13T06:05:49.556Z,76.60
2018-11-13T06:08:21.643Z,65.67
2018-11-13T06:10:53.860Z,65.17
2018-11-13T06:13:26.394Z,54.97
2018-11-13T06:15:59.089Z,54.53
2018-11-13T06:18:31.878Z,49.70
2018-11-13T06:21:03.698Z,48.80
2018-11-13T06:23:35.529Z,43.30
2018-11-13T06:26:07.715Z,46.70
2018-11-13T06:28:39.724Z,43.70
2018-11-13T06:31:11.653Z,43.50
2018-11-13T06:33:43.640Z,43.23
2018-11-13T06:36:15.580Z,44.90
2018-11-13T06:38:47.558Z,40.13
2018-11-13T06:41:19.701Z,40.60
2018-11-13T06:43:54.627Z,40.70
2018-11-13T06:46:26.592Z,39.03
2018-11-13T06:48:59.343Z,38.87
2018-11-13T06:51:31.170Z,39.97
2018-11-13T06:54:13.446Z,38.40
2018-11-13T06:56:45.513Z,37.00
2018-11-13T06:59:17.695Z,39.73
2018-11-13T07:01:50.376Z,34.80
2018-11-13T07:04:24.847Z,37.40
2018-11-13T07:06:56.979Z,37.40
2018-11-13T07:09:29.370Z,37.77
2018-11-13T07:12:02.286Z,37.40
2018-11-13T07:14:42.523Z,37.60
2018-11-13T07:17:14.504Z,34.97
2018-11-13T07:19:46.559Z,34.80
2018-11-13T07:22:18.450Z,35.67
2018-11-13T07:24:50.348Z,36.53
2018-11-13T07:27:22.216Z,38.23
2018-11-13T07:29:54.409Z,36.67
2018-11-13T07:32:26.318Z,34.57
2018-11-13T07:34:58.239Z,32.87
2018-11-13T07:37:30.175Z,34.10
2018-11-13T07:40:01.978Z,31.50
2018-11-13T07:42:33.961Z,34.50
2018-11-13T07:45:06.153Z,33.70
2018-11-13T07:47:38.437Z,33.70
2018-11-13T07:50:11.842Z,33.43
2018-11-13T07:52:44.494Z,34.77
2018-11-13T07:55:17.380Z,32.47
2018-11-13T07:57:49.324Z,33.33
2018-11-13T08:00:22.682Z,32.90
2018-11-13T08:02:55.815Z,32.80
2018-11-13T08:05:27.710Z,33.77
2018-11-13T08:07:59.680Z,34.40
2018-11-13T08:10:31.702Z,32.03
2018-11-13T08:13:03.963Z,30.93
2018-11-13T08:15:36.035Z,33.07
2018-11-13T08:18:07.927Z,31.97
2018-11-13T08:20:39.984Z,31.17
2018-11-13T08:23:12.097Z,32.23
2018-11-13T08:25:44.334Z,31.90
2018-11-13T08:28:16.333Z,32.17
2018-11-13T08:30:48.444Z,31.80
2018-11-13T08:33:20.340Z,30.93
2018-11-13T08:35:52.522Z,30.60
2018-11-13T08:38:24.494Z,30.70
2018-11-13T08:40:56.370Z,30.20
2018-11-13T08:43:28.066Z,29.97
2018-11-13T08:46:00.082Z,30.30
2018-11-13T08:48:32.022Z,30.80
2018-11-13T08:51:03.770Z,29.87
2018-11-13T08:53:35.610Z,31.67
2018-11-13T08:56:07.726Z,30.47
2018-11-13T08:58:39.450Z,29.83
2018-11-13T09:01:11.367Z,30.20
2018-11-13T09:03:43.315Z,28.70
2018-11-13T09:06:15.168Z,24.90
2018-11-13T09:08:47.056Z,26.43
2018-11-13T09:11:19.111Z,28.17
2018-11-13T09:13:51.361Z,26.63
2018-11-13T09:16:24.155Z,28.13
2018-11-13T09:18:56.977Z,27.87
2018-11-13T09:21:29.192Z,29.07
2018-11-13T09:24:01.188Z,27.40
2018-11-13T09:26:33.328Z,27.40
2018-11-13T09:29:05.179Z,29.20
2018-11-13T09:31:37.206Z,27.60
2018-11-13T09:34:09.074Z,25.73
2018-11-13T09:36:40.895Z,29.07
2018-11-13T09:39:13.475Z,27.10
2018-11-13T09:41:45.503Z,26.90
2018-11-13T09:44:17.657Z,28.30
2018-11-13T09:46:49.851Z,28.20
2018-11-13T09:49:22.051Z,27.07
2018-11-13T09:51:54.068Z,28.97
2018-11-13T09:54:26.043Z,28.80
2018-11-13T09:56:58.003Z,27.07
2018-11-13T09:59:29.763Z,27.27
2018-11-13T10:02:02.570Z,28.90
2018-11-13T10:04:34.739Z,27.17
2018-11-13T10:07:06.770Z,28.07
2018-11-13T10:09:38.830Z,30.23
2018-11-13T10:12:10.831Z,31.80
2018-11-13T10:14:42.697Z,30.60
2018-11-13T10:17:14.896Z,29.43
2018-11-13T10:19:46.907Z,33.60
2018-11-13T10:22:19.610Z,59.83
2018-11-13T10:24:51.763Z,64.63
2018-11-13T10:27:23.992Z,54.37
2018-11-13T10:29:56.055Z,53.53
2018-11-13T10:32:28.317Z,48.43
2018-11-13T10:35:00.498Z,45.27
2018-11-13T10:37:32.610Z,40.53
2018-11-13T10:40:04.972Z,41.80
2018-11-13T10:42:36.808Z,39.80
2018-11-13T10:45:11.257Z,39.77
2018-11-13T10:47:43.620Z,36.27
2018-11-13T10:50:17.027Z,34.83
2018-11-13T10:52:49.169Z,34.87
2018-11-13T10:55:21.578Z,34.27
2018-11-13T10:57:54.437Z,36.20
2018-11-13T11:00:33.837Z,32.57
2018-11-13T11:04:10.020Z,33.37
2018-11-13T11:06:42.162Z,33.17
2018-11-13T11:09:14.175Z,30.30
2018-11-13T11:11:46.342Z,33.17
2018-11-13T11:14:18.396Z,33.27
2018-11-13T11:16:50.795Z,31.63
2018-11-13T11:19:23.138Z,31.30
2018-11-13T11:21:55.576Z,30.13
2018-11-13T11:24:27.623Z,29.73
2018-11-13T11:26:59.676Z,29.47
2018-11-13T11:29:32.542Z,30.47
2018-11-13T11:32:04.810Z,29.63
2018-11-13T11:34:36.858Z,27.90
2018-11-13T11:37:09.024Z,27.37
2018-11-13T11:39:45.736Z,27.97
2018-11-13T11:42:17.925Z,29.53
2018-11-13T11:44:49.951Z,29.10
2018-11-13T11:47:22.237Z,27.80
2018-11-13T11:49:54.488Z,30.40
2018-11-13T11:52:26.566Z,29.03
2018-11-13T11:54:58.624Z,27.03
2018-11-13T11:57:30.920Z,30.63
2018-11-13T12:00:03.409Z,29.60
2018-11-13T12:02:35.296Z,31.90
2018-11-13T12:05:07.691Z,29.90
2018-11-13T12:07:39.892Z,28.60
2018-11-13T12:10:13.130Z,30.43
2018-11-13T12:12:45.359Z,30.87
2018-11-13T12:15:18.255Z,29.20
2018-11-13T12:17:53.221Z,29.30
2018-11-13T12:20:28.535Z,27.73
2018-11-13T12:23:01.975Z,31.80
2018-11-13T12:25:37.207Z,29.30
2018-11-13T12:28:09.199Z,29.07
2018-11-13T12:30:42.243Z,25.57
2018-11-13T12:33:14.279Z,26.90
2018-11-13T12:35:48.702Z,26.43
2018-11-13T12:38:21.457Z,27.70
2018-11-13T12:40:53.218Z,24.90
2018-11-13T12:43:25.242Z,26.60
2018-11-13T12:45:57.316Z,26.13
2018-11-13T12:48:30.287Z,24.97
2018-11-13T12:51:06.747Z,26.37
2018-11-13T12:53:40.533Z,25.93
2018-11-13T12:56:15.081Z,24.70
2018-11-13T12:58:48.098Z,25.07
2018-11-13T13:01:21.751Z,24.77
2018-11-13T13:03:55.031Z,26.53
2018-11-13T13:06:40.078Z,22.90
2018-11-13T13:09:12.570Z,25.90
2018-11-13T13:11:45.307Z,23.03
2018-11-13T13:14:18.313Z,26.67
2018-11-13T13:16:52.050Z,25.30
2018-11-13T13:19:24.391Z,23.30
2018-11-13T13:21:58.751Z,25.47
2018-11-13T13:24:32.641Z,23.80
2018-11-13T13:29:54.354Z,23.50
2018-11-13T13:32:26.739Z,23.47
2018-11-13T13:35:00.410Z,23.10
2018-11-13T13:37:33.611Z,25.20
2018-11-13T13:40:06.528Z,23.43
2018-11-13T13:42:40.373Z,22.50
2018-11-13T13:45:16.767Z,23.53
2018-11-13T13:47:49.506Z,23.93
2018-11-13T13:50:21.779Z,24.10
2018-11-13T13:52:56.088Z,21.50
2018-11-13T13:55:32.371Z,22.80
2018-11-13T13:58:05.519Z,22.60
2018-11-13T14:00:38.920Z,22.70
2018-11-13T14:03:12.175Z,22.30
2018-11-13T14:05:46.661Z,23.37
2018-11-13T14:08:21.104Z,21.73
2018-11-13T14:10:54.182Z,20.60
2018-11-13T14:13:26.960Z,22.53
2018-11-13T14:15:59.389Z,21.33
2018-11-13T14:18:30.927Z,21.70
2018-11-13T14:21:03.992Z,20.53
2018-11-13T14:23:36.847Z,19.00
2018-11-13T14:26:18.992Z,20.80
2018-11-13T14:28:52.761Z,20.50
2018-11-13T14:31:33.107Z,18.50
2018-11-13T14:34:08.567Z,20.43
2018-11-13T14:36:59.259Z,20.60
2018-11-13T14:42:25.554Z,16.23
2018-11-13T14:45:04.800Z,16.37
2018-11-13T14:47:45.583Z,16.00
2018-11-13T14:50:25.933Z,14.80
2018-11-13T14:52:56.233Z,13.97
2018-11-13T14:55:29.075Z,12.93
2018-11-13T14:57:59.969Z,11.40
2018-11-13T15:00:31.222Z,11.57
2018-11-13T15:03:02.227Z,9.93
2018-11-13T15:05:33.111Z,8.27
2018-11-13T15:08:04.694Z,8.90
2018-11-13T15:10:49.308Z,8.17
2018-11-13T15:13:20.341Z,7.00
2018-11-13T15:15:50.515Z,7.23
2018-11-13T15:18:20.637Z,7.30
2018-11-13T15:20:51.615Z,5.47
2018-11-13T15:23:21.937Z,6.17
2018-11-13T15:25:52.004Z,6.67
2018-11-13T15:28:22.103Z,5.10
2018-11-13T15:30:52.342Z,5.27
2018-11-13T15:33:23.558Z,5.70
2018-11-13T15:35:53.844Z,5.07
2018-11-13T15:38:24.053Z,3.80
2018-11-13T15:40:54.129Z,4.83
2018-11-13T15:43:24.469Z,3.50
2018-11-13T15:45:55.419Z,4.60
2018-11-13T15:48:25.528Z,4.27
2018-11-13T15:50:55.817Z,3.63
2018-11-13T15:53:26.046Z,4.63
2018-11-13T15:55:56.191Z,4.00
2018-11-13T15:58:26.338Z,3.97
2018-11-13T16:00:56.554Z,4.00
2018-11-13T16:03:35.660Z,3.50
2018-11-13T16:06:06.791Z,3.57
2018-11-13T16:08:36.928Z,3.10
2018-11-13T16:11:07.140Z,4.07
2018-11-13T16:13:37.465Z,3.73
2018-11-13T16:16:07.598Z,3.93
2018-11-13T16:18:37.804Z,4.87
2018-11-13T16:21:09.080Z,3.73
2018-11-13T16:23:53.856Z,3.07
2018-11-13T16:26:24.318Z,4.37
2018-11-13T16:28:54.804Z,4.00
2018-11-13T16:31:31.795Z,4.90
2018-11-13T16:34:02.024Z,4.20
2018-11-13T16:36:32.246Z,4.03
2018-11-13T16:39:02.474Z,4.80
2018-11-13T16:41:33.411Z,4.20
2018-11-13T16:44:03.505Z,4.93
2018-11-13T16:46:33.964Z,5.20
2018-11-13T16:49:04.282Z,4.60
2018-11-13T16:51:34.636Z,4.00
2018-11-13T16:54:07.396Z,4.87
2018-11-13T16:56:42.737Z,4.90
2018-11-13T16:59:12.842Z,4.70
2018-11-13T17:01:42.968Z,5.70
2018-11-13T17:04:13.165Z,4.23
2018-11-13T17:06:43.346Z,4.53
2018-11-13T17:09:13.548Z,5.40
2018-11-13T17:11:43.978Z,4.30
2018-11-13T17:14:14.524Z,4.80
2018-11-13T17:16:44.999Z,4.50
2018-11-13T17:19:15.156Z,5.40
2018-11-13T17:21:45.461Z,3.20
2018-11-13T17:24:15.971Z,3.50
2018-11-13T17:26:46.264Z,4.83
2018-11-13T17:29:16.986Z,3.70
2018-11-13T17:31:47.366Z,3.60
2018-11-13T17:34:17.827Z,3.33
2018-11-13T17:36:48.459Z,4.83
2018-11-13T17:39:18.758Z,4.50
2018-11-13T17:41:49.548Z,3.87
2018-11-13T17:44:19.906Z,4.60
2018-11-13T17:46:50.193Z,37.07
2018-11-13T17:49:21.127Z,38.20
2018-11-13T17:51:51.487Z,31.30
2018-11-13T17:54:23.602Z,24.97
2018-11-13T17:56:52.285Z,23.10
2018-11-13T17:59:22.688Z,20.00
2018-11-13T18:01:53.012Z,13.57
2018-11-13T18:04:23.294Z,15.30
2018-11-13T18:06:53.671Z,12.20
2018-11-13T18:09:24.068Z,10.83
2018-11-13T18:11:54.256Z,9.53
2018-11-13T18:14:24.621Z,9.80
2018-11-13T18:16:54.917Z,9.50
2018-11-13T18:19:26.402Z,8.40
2018-11-13T18:21:56.613Z,9.17
2018-11-13T18:24:26.877Z,9.00
2018-11-13T18:26:57.468Z,8.50
2018-11-13T18:29:28.328Z,8.10
2018-11-13T18:31:58.650Z,6.57
2018-11-13T18:34:29.929Z,7.50
2018-11-13T18:37:00.110Z,7.53
2018-11-13T18:39:31.549Z,6.40
2018-11-13T18:42:02.211Z,7.93
2018-11-13T18:44:33.279Z,6.40
2018-11-13T18:47:03.806Z,6.70
2018-11-13T18:49:34.023Z,5.50
2018-11-13T18:52:04.902Z,4.93
2018-11-13T18:54:35.914Z,4.90
2018-11-13T18:57:06.677Z,5.00
2018-11-13T18:59:36.936Z,5.33
2018-11-13T19:02:07.343Z,6.63
2018-11-13T19:04:38.475Z,5.77
2018-11-13T19:07:09.070Z,6.00
2018-11-13T19:09:39.801Z,5.10
2018-11-13T19:12:10.233Z,5.90
2018-11-13T19:14:40.560Z,5.60
2018-11-13T19:17:11.015Z,6.10
2018-11-13T19:19:42.303Z,5.00
2018-11-13T19:22:13.418Z,5.17
2018-11-13T19:24:44.046Z,5.80
2018-11-13T19:27:14.646Z,5.50
2018-11-13T19:29:47.053Z,6.23
2018-11-13T19:32:18.812Z,4.83
2018-11-13T19:34:50.093Z,5.37
2018-11-13T19:37:21.584Z,4.73
2018-11-13T19:39:53.100Z,6.00
2018-11-13T19:42:23.854Z,4.07
2018-11-13T19:44:54.281Z,5.63
2018-11-13T19:47:25.521Z,4.20
2018-11-13T19:49:55.867Z,4.47
2018-11-13T19:52:36.286Z,4.57
2018-11-13T19:55:17.565Z,4.50
2018-11-13T19:57:48.662Z,3.93
2018-11-13T20:00:21.973Z,4.70
2018-11-13T20:02:53.269Z,4.67
2018-11-13T20:05:24.189Z,4.80
2018-11-13T20:07:55.392Z,4.53
2018-11-13T20:10:27.882Z,5.03
2018-11-13T20:12:59.405Z,4.80
2018-11-13T20:15:30.083Z,4.23
2018-11-13T20:18:00.400Z,4.60
2018-11-13T20:20:31.637Z,4.53
2018-11-13T20:23:04.158Z,4.63
2018-11-13T20:25:35.383Z,5.57
2018-11-13T20:28:05.943Z,5.40
2018-11-13T20:30:38.789Z,4.00
2018-11-13T20:33:09.084Z,5.90
2018-11-13T20:35:39.605Z,5.20
2018-11-13T20:38:10.175Z,5.37
2018-11-13T20:40:40.801Z,4.40
2018-11-13T20:43:12.397Z,4.80
2018-11-13T20:45:43.594Z,4.90
2018-11-13T20:48:13.977Z,4.53
2018-11-13T20:50:45.488Z,3.53
2018-11-13T20:53:16.431Z,3.73
2018-11-13T20:55:46.829Z,3.73
2018-11-13T20:58:18.728Z,4.20
2018-11-13T21:00:49.177Z,4.60
2018-11-13T21:03:21.349Z,3.93
2018-11-13T21:05:53.115Z,3.10
2018-11-13T21:08:24.729Z,3.70
2018-11-13T21:10:59.718Z,4.70
2018-11-13T21:13:30.107Z,3.60
2018-11-13T21:16:00.872Z,3.47
2018-11-13T21:18:30.977Z,4.70
2018-11-13T21:21:01.187Z,5.97
2018-11-13T21:23:31.740Z,7.30
2018-11-13T21:26:08.997Z,6.17
2018-11-13T21:28:54.000Z,6.90
2018-11-13T21:31:35.484Z,6.53
2018-11-13T21:34:06.048Z,6.90
2018-11-13T21:36:36.426Z,7.00
2018-11-13T21:39:09.947Z,7.20
2018-11-13T21:41:40.353Z,6.00
2018-11-13T21:44:10.498Z,6.30
2018-11-13T21:46:40.956Z,5.57
2018-11-13T21:49:11.379Z,4.70
2018-11-13T21:51:41.654Z,5.13
2018-11-13T21:54:12.307Z,4.80
2018-11-13T21:56:42.674Z,4.23
2018-11-13T21:59:13.038Z,4.40
2018-11-13T22:01:43.156Z,4.43
2018-11-13T22:04:13.913Z,3.63
2018-11-13T22:06:46.295Z,4.20
2018-11-13T22:09:16.407Z,4.57
2018-11-13T22:11:47.095Z,3.10
2018-11-13T22:14:17.918Z,4.53
2018-11-13T22:16:47.775Z,3.73
2018-11-13T22:19:17.978Z,3.93
2018-11-13T22:21:48.619Z,4.37
2018-11-13T22:24:18.708Z,4.30
2018-11-13T22:26:48.994Z,4.57
2018-11-13T22:29:19.174Z,3.80
2018-11-13T22:31:49.506Z,5.37
2018-11-13T22:34:19.594Z,3.00
2018-11-13T22:36:49.776Z,3.70
2018-11-13T22:39:20.001Z,3.07
2018-11-13T22:41:50.338Z,3.50
2018-11-13T22:44:20.455Z,3.63
2018-11-13T22:46:50.740Z,3.17
2018-11-13T22:49:20.838Z,3.67
2018-11-13T22:51:50.860Z,4.10
2018-11-13T22:54:20.908Z,3.40
2018-11-13T22:56:51.233Z,3.03
2018-11-13T22:59:21.517Z,2.50
2018-11-13T23:01:51.888Z,3.90
2018-11-13T23:04:22.197Z,2.73
2018-11-13T23:06:52.143Z,3.03
2018-11-13T23:09:22.130Z,2.87
2018-11-13T23:11:52.302Z,3.40
2018-11-13T23:14:22.505Z,3.10
2018-11-13T23:16:52.854Z,3.77
2018-11-13T23:19:22.948Z,2.40
2018-11-13T23:21:53.117Z,2.80
2018-11-13T23:24:23.254Z,2.13
2018-11-13T23:26:53.498Z,2.97
2018-11-13T23:29:23.818Z,2.80
2018-11-13T23:31:53.970Z,3.73
2018-11-13T23:34:24.214Z,3.13
2018-11-13T23:36:54.250Z,2.97
2018-11-13T23:39:24.350Z,2.77
2018-11-13T23:41:54.480Z,2.37
2018-11-13T23:44:24.894Z,2.70
2018-11-13T23:46:54.937Z,2.50
2018-11-13T23:49:25.213Z,2.03
2018-11-13T23:51:55.522Z,2.10
2018-11-13T23:54:25.851Z,2.10
2018-11-13T23:56:56.168Z,2.83
2018-11-13T23:59:26.480Z,1.90
